Time;durP1;ratioP1;P1;durP2;ratioP2;P2;SDS_P1;SDS_P2;PMS_P1;PMS_P2;Temp;Humidity;BMP_temperature;BMP_pressure;BME280_temperature;BME280_humidity;BME280_pressure;Samples;Min_cycle;Max_cycle;Signal;HPM_P1;HPM_P2
2022/09/12 00:00:47;;;;;;;20.35;15.38;;;;;;;;;;5144208;27;19915;-68
2022/09/12 00:03:13;;;;;;;23.13;16.50;;;;;;;;;;5133002;27;20473;-68
2022/09/12 00:05:46;;;;;;;21.20;15.88;;;;;;;;;;5131761;27;20115;-69
2022/09/12 00:08:13;;;;;;;22.60;16.25;;;;;;;;;;5105076;27;20111;-68
2022/09/12 00:10:40;;;;;;;22.50;16.63;;;;;;;;;;5139541;27;20133;-69
2022/09/12 00:13:07;;;;;;;22.10;17.27;;;;;;;;;;5151568;27;20078;-69
2022/09/12 00:15:43;;;;;;;25.13;18.05;;;;;;;;;;5147675;27;20059;-68
2022/09/12 00:18:12;;;;;;;24.40;18.35;;;;;;;;;;5150709;27;20097;-68
2022/09/12 00:20:45;;;;;;;21.05;16.95;;;;;;;;;;5148169;27;20042;-70
2022/09/12 00:23:14;;;;;;;22.88;17.33;;;;;;;;;;5151083;27;20042;-68
2022/09/12 00:25:44;;;;;;;24.45;17.55;;;;;;;;;;5149739;27;20051;-69
2022/09/12 00:28:11;;;;;;;22.85;17.80;;;;;;;;;;5147331;27;20140;-68
2022/09/12 00:30:41;;;;;;;22.98;18.48;;;;;;;;;;5149748;27;20414;-69
2022/09/12 00:33:08;;;;;;;21.48;17.25;;;;;;;;;;5145054;27;20055;-69
2022/09/12 00:35:34;;;;;;;20.92;17.77;;;;;;;;;;5147853;27;20084;-69
2022/09/12 00:38:00;;;;;;;23.63;19.15;;;;;;;;;;5150541;27;20053;-69
2022/09/12 00:40:27;;;;;;;25.45;19.25;;;;;;;;;;5151160;27;20510;-69
2022/09/12 00:42:53;;;;;;;23.85;19.48;;;;;;;;;;5147973;27;20072;-69
2022/09/12 00:45:19;;;;;;;;;;;;;;;;;;5148776;27;20034;-69
2022/09/12 00:47:45;;;;;;;24.80;19.98;;;;;;;;;;5129103;27;20272;-68
2022/09/12 00:50:12;;;;;;;28.15;19.13;;;;;;;;;;5116259;27;20395;-69
2022/09/12 00:52:48;;;;;;;25.20;19.92;;;;;;;;;;5146537;27;20126;-69
2022/09/12 00:55:17;;;;;;;26.50;20.17;;;;;;;;;;5150514;27;20054;-69
2022/09/12 00:57:46;;;;;;;23.63;19.65;;;;;;;;;;5130755;27;20042;-70
2022/09/12 01:00:14;;;;;;;25.33;18.58;;;;;;;;;;5146255;27;20225;-69
2022/09/12 01:02:42;;;;;;;25.13;20.00;;;;;;;;;;5148053;27;20118;-69
2022/09/12 01:05:09;;;;;;;27.73;20.92;;;;;;;;;;5146926;27;20050;-69
2022/09/12 01:07:36;;;;;;;30.65;21.88;;;;;;;;;;5150667;27;20054;-69
2022/09/12 01:10:04;;;;;;;27.15;21.45;;;;;;;;;;5148566;27;20046;-69
2022/09/12 01:12:30;;;;;;;29.27;21.23;;;;;;;;;;5149948;27;20057;-69
2022/09/12 01:14:56;;;;;;;27.80;22.15;;;;;;;;;;5143005;27;20519;-69
2022/09/12 01:17:24;;;;;;;29.55;22.25;;;;;;;;;;5148304;27;20042;-69
2022/09/12 01:19:56;;;;;;;25.35;20.75;;;;;;;;;;5146959;27;20251;-69
2022/09/12 01:22:41;;;;;;;25.83;21.50;;;;;;;;;;5129513;27;20125;-69
2022/09/12 01:25:19;;;;;;;27.17;21.02;;;;;;;;;;5124278;27;20066;-69
2022/09/12 01:27:45;;;;;;;28.80;21.90;;;;;;;;;;5149075;27;20086;-67
2022/09/12 01:30:20;;;;;;;26.20;21.33;;;;;;;;;;5128085;27;20078;-67
2022/09/12 01:32:59;;;;;;;27.08;22.05;;;;;;;;;;5144717;27;20051;-68
2022/09/12 01:35:30;;;;;;;25.63;21.55;;;;;;;;;;5139174;27;20073;-67
2022/09/12 01:38:06;;;;;;;29.83;23.98;;;;;;;;;;5146479;27;20042;-68
2022/09/12 01:40:40;;;;;;;32.15;23.30;;;;;;;;;;5142271;27;20126;-67
2022/09/12 01:43:20;;;;;;;31.80;23.80;;;;;;;;;;5129258;27;20047;-67
2022/09/12 01:45:52;;;;;;;26.45;21.65;;;;;;;;;;5144084;27;20099;-68
2022/09/12 01:48:20;;;;;;;30.00;24.33;;;;;;;;;;5149454;27;20046;-67
2022/09/12 01:51:04;;;;;;;32.10;24.95;;;;;;;;;;5147138;27;20122;-68
2022/09/12 01:53:34;;;;;;;34.92;24.95;;;;;;;;;;5133874;27;20103;-67
2022/09/12 01:56:05;;;;;;;30.73;25.10;;;;;;;;;;5121650;27;20047;-69
2022/09/12 01:59:01;;;;;;;28.40;24.67;;;;;;;;;;5150106;27;20122;-67
2022/09/12 02:01:28;;;;;;;27.75;23.40;;;;;;;;;;5072165;27;20052;-68
2022/09/12 02:03:55;;;;;;;30.38;25.10;;;;;;;;;;5149995;27;20149;-68
2022/09/12 02:06:21;;;;;;;;;;;;;;;;;;5149066;27;20069;-68
2022/09/12 02:08:55;;;;;;;30.40;25.52;;;;;;;;;;5148963;27;19923;-69
2022/09/12 02:11:21;;;;;;;31.85;24.92;;;;;;;;;;5147354;27;20058;-68
2022/09/12 02:13:47;;;;;;;;;;;;;;;;;;5149296;27;20452;-69
2022/09/12 02:16:27;;;;;;;28.45;23.45;;;;;;;;;;5148285;27;19923;-68
2022/09/12 02:18:56;;;;;;;32.00;24.98;;;;;;;;;;5145507;27;20359;-68
2022/09/12 02:21:23;;;;;;;30.15;24.83;;;;;;;;;;5147006;27;20490;-68
2022/09/12 02:23:55;;;;;;;31.38;26.00;;;;;;;;;;5147586;27;20065;-69
2022/09/12 02:26:25;;;;;;;32.55;26.70;;;;;;;;;;5148204;27;20114;-68
2022/09/12 02:28:51;;;;;;;31.70;25.85;;;;;;;;;;5145498;27;20138;-69
2022/09/12 02:31:22;;;;;;;32.08;25.85;;;;;;;;;;5148311;27;20372;-68
2022/09/12 02:33:58;;;;;;;33.25;25.90;;;;;;;;;;5149284;27;20035;-68
2022/09/12 02:36:33;;;;;;;33.30;25.07;;;;;;;;;;5146823;27;20138;-68
2022/09/12 02:38:59;;;;;;;31.90;26.15;;;;;;;;;;5146356;27;20048;-68
2022/09/12 02:41:26;;;;;;;29.40;24.50;;;;;;;;;;5148290;27;20111;-68
2022/09/12 02:43:51;;;;;;;;;;;;;;;;;;5130497;27;20173;-69
2022/09/12 02:46:34;;;;;;;29.88;26.27;;;;;;;;;;5150556;27;19962;-68
2022/09/12 02:49:00;;;;;;;36.22;28.08;;;;;;;;;;5148237;27;20042;-68
2022/09/12 02:51:26;;;;;;;31.38;25.75;;;;;;;;;;5148834;27;20169;-68
2022/09/12 02:53:52;;;;;;;34.10;28.38;;;;;;;;;;5152836;27;20057;-68
2022/09/12 02:56:19;;;;;;;;;;;;;;;;;;5133838;27;20043;-68
2022/09/12 02:58:45;;;;;;;31.27;25.98;;;;;;;;;;5151724;27;20388;-68
2022/09/12 03:01:14;;;;;;;31.63;27.00;;;;;;;;;;5152161;27;20049;-68
2022/09/12 03:03:43;;;;;;;34.60;28.27;;;;;;;;;;5151879;27;20058;-67
2022/09/12 03:06:27;;;;;;;32.25;26.90;;;;;;;;;;5148950;27;20172;-68
2022/09/12 03:08:59;;;;;;;35.00;27.35;;;;;;;;;;5150283;27;20118;-68
2022/09/12 03:11:44;;;;;;;33.28;28.58;;;;;;;;;;5152757;27;20193;-69
2022/09/12 03:14:22;;;;;;;35.42;26.98;;;;;;;;;;5132414;27;20481;-68
2022/09/12 03:17:04;;;;;;;33.58;27.05;;;;;;;;;;5129623;27;20091;-68
2022/09/12 03:19:44;;;;;;;36.58;28.80;;;;;;;;;;5151865;27;20043;-68
2022/09/12 03:22:33;;;;;;;33.97;28.50;;;;;;;;;;5149318;27;20050;-68
2022/09/12 03:25:08;;;;;;;40.17;29.85;;;;;;;;;;5132063;27;20047;-69
2022/09/12 03:27:38;;;;;;;35.15;29.10;;;;;;;;;;5146610;27;20083;-68
2022/09/12 03:30:05;;;;;;;36.78;29.15;;;;;;;;;;5092773;27;20134;-68
2022/09/12 03:32:48;;;;;;;36.92;28.48;;;;;;;;;;5143549;27;20115;-67
2022/09/12 03:35:15;;;;;;;40.50;29.48;;;;;;;;;;5150440;27;20130;-68
2022/09/12 03:37:41;;;;;;;36.25;29.92;;;;;;;;;;5149624;27;20047;-67
2022/09/12 03:40:07;;;;;;;39.63;28.48;;;;;;;;;;5151100;27;20130;-68
2022/09/12 03:42:33;;;;;;;35.80;28.98;;;;;;;;;;5149267;27;20114;-67
2022/09/12 03:44:59;;;;;;;38.15;29.50;;;;;;;;;;5151561;27;20362;-67
2022/09/12 03:47:26;;;;;;;39.83;31.75;;;;;;;;;;5126953;27;20054;-67
2022/09/12 03:49:52;;;;;;;42.78;32.85;;;;;;;;;;5149408;27;20046;-68
2022/09/12 03:52:18;;;;;;;44.40;32.25;;;;;;;;;;5147359;27;20091;-68
2022/09/12 03:54:44;;;;;;;38.20;30.23;;;;;;;;;;5151636;27;20148;-68
2022/09/12 03:57:10;;;;;;;38.75;30.35;;;;;;;;;;5147134;27;20151;-68
2022/09/12 03:59:36;;;;;;;43.72;31.13;;;;;;;;;;5152768;27;20226;-68
2022/09/12 04:02:03;;;;;;;39.03;30.30;;;;;;;;;;5145922;27;20213;-68
2022/09/12 04:04:30;;;;;;;44.65;31.80;;;;;;;;;;5150554;27;20061;-68
2022/09/12 04:06:56;;;;;;;42.58;30.95;;;;;;;;;;5131525;27;20062;-69
2022/09/12 04:09:22;;;;;;;42.30;32.17;;;;;;;;;;5149899;27;20054;-67
2022/09/12 04:11:48;;;;;;;39.38;30.70;;;;;;;;;;5132675;27;20068;-68
2022/09/12 04:14:14;;;;;;;44.03;32.70;;;;;;;;;;5127838;27;20052;-69
2022/09/12 04:16:40;;;;;;;41.55;31.33;;;;;;;;;;5151636;27;20370;-68
2022/09/12 04:19:06;;;;;;;42.20;30.52;;;;;;;;;;5130920;27;20047;-70
2022/09/12 04:21:41;;;;;;;43.85;32.75;;;;;;;;;;5148831;27;20049;-69
2022/09/12 04:24:07;;;;;;;41.28;30.65;;;;;;;;;;5142930;27;20133;-72
2022/09/12 04:26:33;;;;;;;42.28;32.22;;;;;;;;;;5146527;27;20454;-69
2022/09/12 04:28:59;;;;;;;44.90;32.45;;;;;;;;;;5149551;27;20047;-69
2022/09/12 04:31:25;;;;;;;;;;;;;;;;;;5112888;27;20122;-69
2022/09/12 04:33:55;;;;;;;40.00;31.02;;;;;;;;;;5149931;27;20022;-69
2022/09/12 04:36:22;;;;;;;46.15;33.17;;;;;;;;;;5151054;27;20132;-69
2022/09/12 04:38:48;;;;;;;;;;;;;;;;;;5130633;27;20047;-69
2022/09/12 04:41:15;;;;;;;42.33;31.42;;;;;;;;;;5151250;27;19994;-69
2022/09/12 04:43:42;;;;;;;43.72;32.20;;;;;;;;;;5150084;27;20046;-70
2022/09/12 04:46:09;;;;;;;46.13;32.78;;;;;;;;;;5118647;27;20137;-69
2022/09/12 04:48:35;;;;;;;43.88;32.28;;;;;;;;;;5149909;27;20057;-68
2022/09/12 04:51:19;;;;;;;44.35;31.95;;;;;;;;;;5148625;27;20133;-71
2022/09/12 04:53:50;;;;;;;47.70;33.22;;;;;;;;;;5127589;27;20473;-68
2022/09/12 04:56:20;;;;;;;48.75;32.55;;;;;;;;;;5145588;27;20054;-70
2022/09/12 04:58:46;;;;;;;48.20;33.35;;;;;;;;;;5131081;27;20042;-69
2022/09/12 05:01:17;;;;;;;44.78;32.45;;;;;;;;;;5148253;27;20106;-70
2022/09/12 05:03:44;;;;;;;46.60;32.22;;;;;;;;;;5149998;27;20061;-68
2022/09/12 05:06:11;;;;;;;43.15;32.17;;;;;;;;;;5146024;27;20122;-68
2022/09/12 05:08:37;;;;;;;44.00;32.25;;;;;;;;;;5129911;27;20057;-69
2022/09/12 05:11:06;;;;;;;45.83;31.65;;;;;;;;;;5145863;27;20047;-69
2022/09/12 05:13:33;;;;;;;43.67;31.35;;;;;;;;;;5149994;27;20390;-68
2022/09/12 05:16:00;;;;;;;46.47;31.23;;;;;;;;;;5108260;27;20066;-68
2022/09/12 05:18:26;;;;;;;41.92;30.75;;;;;;;;;;5146425;27;20046;-68
2022/09/12 05:20:52;;;;;;;;;;;;;;;;;;5146831;27;20402;-69
2022/09/12 05:23:18;;;;;;;44.78;31.00;;;;;;;;;;5128761;27;19923;-71
2022/09/12 05:25:51;;;;;;;44.95;31.80;;;;;;;;;;5129398;27;20150;-69
2022/09/12 05:28:18;;;;;;;43.50;30.45;;;;;;;;;;5146971;27;20058;-72
2022/09/12 05:30:48;;;;;;;42.95;30.23;;;;;;;;;;5123399;27;20077;-70
2022/09/12 05:33:15;;;;;;;43.55;30.90;;;;;;;;;;5127709;27;20039;-68
2022/09/12 05:35:41;;;;;;;44.08;31.23;;;;;;;;;;5128550;27;20123;-68
2022/09/12 05:38:07;;;;;;;40.88;29.40;;;;;;;;;;5128297;27;20150;-69
2022/09/12 05:40:34;;;;;;;42.10;30.33;;;;;;;;;;5128752;27;20155;-69
2022/09/12 05:43:00;;;;;;;40.33;28.95;;;;;;;;;;5122226;27;20039;-69
2022/09/12 05:45:35;;;;;;;42.30;30.75;;;;;;;;;;5128123;27;20050;-69
2022/09/12 05:48:01;;;;;;;41.30;29.42;;;;;;;;;;5126136;27;20045;-69
2022/09/12 05:50:27;;;;;;;;;;;;;;;;;;5126530;27;20062;-70
2022/09/12 05:52:53;;;;;;;44.35;30.15;;;;;;;;;;5122832;27;19919;-68
2022/09/12 05:55:20;;;;;;;49.83;30.88;;;;;;;;;;5125393;27;20068;-71
2022/09/12 05:57:46;;;;;;;40.22;28.92;;;;;;;;;;5111781;27;20042;-69
2022/09/12 06:00:14;;;;;;;45.90;31.20;;;;;;;;;;5119599;27;20047;-70
2022/09/12 06:02:40;;;;;;;41.55;30.33;;;;;;;;;;5120977;27;20043;-70
2022/09/12 06:05:07;;;;;;;42.85;30.92;;;;;;;;;;5126584;27;20043;-69
2022/09/12 06:07:32;;;;;;;;;;;;;;;;;;5115282;27;20458;-70
2022/09/12 06:09:59;;;;;;;45.13;31.98;;;;;;;;;;5123000;27;19964;-69
2022/09/12 06:12:25;;;;;;;41.58;29.50;;;;;;;;;;5120723;27;20039;-71
2022/09/12 06:14:52;;;;;;;44.80;31.17;;;;;;;;;;5118173;27;20035;-69
2022/09/12 06:17:19;;;;;;;47.50;33.20;;;;;;;;;;5109754;27;20047;-69
2022/09/12 06:19:45;;;;;;;53.70;33.92;;;;;;;;;;5127106;27;20054;-69
2022/09/12 06:22:11;;;;;;;51.28;33.75;;;;;;;;;;5127936;27;20126;-70
2022/09/12 06:24:37;;;;;;;47.13;33.20;;;;;;;;;;5126600;27;20095;-69
2022/09/12 06:27:03;;;;;;;52.88;34.75;;;;;;;;;;5127655;28;20053;-69
2022/09/12 06:29:31;;;;;;;;;;;;;;;;;;5127256;28;20066;-68
2022/09/12 06:31:57;;;;;;;49.40;34.67;;;;;;;;;;5118794;28;20007;-69
2022/09/12 06:34:25;;;;;;;;;;;;;;;;;;5111297;28;20134;-69
2022/09/12 06:36:52;;;;;;;55.22;35.03;;;;;;;;;;5102391;28;19924;-72
2022/09/12 06:39:22;;;;;;;51.60;35.10;;;;;;;;;;5129439;28;20066;-69
2022/09/12 06:41:49;;;;;;;50.97;36.30;;;;;;;;;;5113048;28;20057;-70
2022/09/12 06:44:16;;;;;;;54.35;36.17;;;;;;;;;;5112787;28;20081;-69
2022/09/12 06:46:43;;;;;;;55.67;36.90;;;;;;;;;;5109883;28;20127;-70
2022/09/12 06:49:09;;;;;;;55.92;36.83;;;;;;;;;;5097554;28;20039;-69
2022/09/12 06:51:35;;;;;;;53.97;37.10;;;;;;;;;;5108184;28;20176;-69
2022/09/12 06:54:02;;;;;;;61.90;39.95;;;;;;;;;;5108315;28;20048;-70
2022/09/12 06:56:28;;;;;;;60.65;39.00;;;;;;;;;;5108177;28;20096;-71
2022/09/12 06:58:58;;;;;;;55.08;36.95;;;;;;;;;;5114674;28;20344;-70
2022/09/12 07:01:24;;;;;;;62.55;38.55;;;;;;;;;;5127580;28;20065;-72
2022/09/12 07:03:51;;;;;;;60.53;40.67;;;;;;;;;;5128337;28;20047;-70
2022/09/12 07:06:19;;;;;;;61.90;40.88;;;;;;;;;;5128529;27;20100;-70
2022/09/12 07:08:45;;;;;;;64.80;40.45;;;;;;;;;;5110072;28;20501;-72
2022/09/12 07:11:24;;;;;;;61.83;39.53;;;;;;;;;;5103556;28;20512;-70
2022/09/12 07:13:51;;;;;;;65.80;41.70;;;;;;;;;;5107751;28;20146;-69
2022/09/12 07:16:17;;;;;;;68.43;42.78;;;;;;;;;;5111771;28;20063;-70
2022/09/12 07:18:45;;;;;;;68.05;42.45;;;;;;;;;;5107087;28;20083;-74
2022/09/12 07:21:12;;;;;;;64.57;41.10;;;;;;;;;;5107999;28;20050;-71
2022/09/12 07:23:40;;;;;;;65.97;42.75;;;;;;;;;;5107566;28;20052;-69
2022/09/12 07:26:07;;;;;;;66.47;42.50;;;;;;;;;;5106985;28;20503;-71
2022/09/12 07:28:33;;;;;;;68.30;42.50;;;;;;;;;;5106581;28;20043;-71
2022/09/12 07:31:10;;;;;;;68.53;43.20;;;;;;;;;;5124698;27;20063;-71
2022/09/12 07:33:40;;;;;;;70.35;42.90;;;;;;;;;;5116841;27;20051;-73
2022/09/12 07:36:09;;;;;;;68.97;43.08;;;;;;;;;;5129806;27;20097;-70
2022/09/12 07:38:35;;;;;;;69.68;43.03;;;;;;;;;;5132126;27;20055;-71
2022/09/12 07:41:02;;;;;;;;;;;;;;;;;;5132427;27;20084;-72
2022/09/12 07:43:28;;;;;;;65.65;41.47;;;;;;;;;;5132450;27;19997;-73
2022/09/12 07:45:57;;;;;;;71.90;44.60;;;;;;;;;;5128566;27;20104;-71
2022/09/12 07:48:23;;;;;;;68.18;43.70;;;;;;;;;;5132161;27;20043;-71
2022/09/12 07:50:49;;;;;;;;;;;;;;;;;;5129477;27;20191;-73
2022/09/12 07:53:15;;;;;;;69.13;43.58;;;;;;;;;;5132133;27;19919;-74
2022/09/12 07:55:41;;;;;;;73.75;45.40;;;;;;;;;;5130021;27;20043;-73
2022/09/12 07:58:07;;;;;;;;;;;;;;;;;;5132599;27;20043;-73
2022/09/12 08:00:36;;;;;;;68.22;43.08;;;;;;;;;;5129346;27;19919;-72
2022/09/12 08:03:03;;;;;;;67.15;42.25;;;;;;;;;;5130264;27;20119;-72
2022/09/12 08:05:29;;;;;;;71.07;43.55;;;;;;;;;;5131881;27;20097;-70
2022/09/12 08:07:55;;;;;;;66.57;43.13;;;;;;;;;;5131121;27;20046;-72
2022/09/12 08:10:21;;;;;;;72.10;44.05;;;;;;;;;;5130125;27;20039;-72
2022/09/12 08:12:48;;;;;;;72.90;42.97;;;;;;;;;;5128774;27;20183;-74
2022/09/12 08:15:14;;;;;;;69.95;42.05;;;;;;;;;;5112980;27;20039;-72
2022/09/12 08:17:44;;;;;;;67.53;42.05;;;;;;;;;;5131228;27;20062;-72
2022/09/12 08:20:11;;;;;;;72.10;41.88;;;;;;;;;;5130729;27;20114;-71
2022/09/12 08:22:38;;;;;;;70.07;43.95;;;;;;;;;;5131336;27;20047;-72
2022/09/12 08:25:04;;;;;;;74.80;42.95;;;;;;;;;;5129857;27;20454;-72
2022/09/12 08:27:30;;;;;;;;;;;;;;;;;;5130383;27;20129;-71
2022/09/12 08:29:56;;;;;;;68.25;41.70;;;;;;;;;;5128230;27;20337;-70
2022/09/12 08:32:24;;;;;;;67.07;42.28;;;;;;;;;;5130533;27;20043;-72
2022/09/12 08:34:50;;;;;;;66.63;40.97;;;;;;;;;;5130897;27;20069;-72
2022/09/12 08:37:16;;;;;;;64.60;40.38;;;;;;;;;;5131335;27;20058;-71
2022/09/12 08:39:42;;;;;;;69.43;41.78;;;;;;;;;;5130815;27;20068;-70
2022/09/12 08:42:09;;;;;;;63.15;40.28;;;;;;;;;;5129599;27;20134;-71
2022/09/12 08:44:38;;;;;;;63.30;41.42;;;;;;;;;;5131005;27;20099;-70
2022/09/12 08:47:05;;;;;;;67.45;41.05;;;;;;;;;;5130541;27;20047;-69
2022/09/12 08:49:37;;;;;;;62.78;38.92;;;;;;;;;;5128436;27;20418;-70
2022/09/12 08:52:27;;;;;;;66.88;41.35;;;;;;;;;;5130574;27;20044;-71
2022/09/12 08:54:55;;;;;;;64.03;38.20;;;;;;;;;;5122381;27;20119;-72
2022/09/12 08:57:21;;;;;;;65.80;40.47;;;;;;;;;;5129213;27;20057;-71
2022/09/12 08:59:48;;;;;;;66.90;39.13;;;;;;;;;;5129257;27;20039;-71
2022/09/12 09:02:23;;;;;;;59.28;37.28;;;;;;;;;;5130788;27;20058;-70
2022/09/12 09:04:56;;;;;;;65.47;38.97;;;;;;;;;;5130417;27;20147;-71
2022/09/12 09:07:36;;;;;;;65.53;39.10;;;;;;;;;;5130486;27;20051;-71
2022/09/12 09:10:03;;;;;;;63.90;38.40;;;;;;;;;;5129108;27;20063;-71
2022/09/12 09:12:38;;;;;;;57.80;37.20;;;;;;;;;;5127868;27;20066;-71
2022/09/12 09:15:23;;;;;;;59.38;37.63;;;;;;;;;;5129958;27;20054;-71
2022/09/12 09:17:54;;;;;;;61.65;37.47;;;;;;;;;;5130170;27;20502;-71
2022/09/12 09:20:40;;;;;;;59.85;37.35;;;;;;;;;;5128823;27;20069;-73
2022/09/12 09:23:32;;;;;;;61.67;37.70;;;;;;;;;;5129768;27;20039;-72
2022/09/12 09:26:06;;;;;;;57.38;36.72;;;;;;;;;;5118178;27;20378;-72
2022/09/12 09:28:53;;;;;;;60.03;37.22;;;;;;;;;;5128005;27;20178;-74
2022/09/12 09:31:22;;;;;;;60.72;37.53;;;;;;;;;;5117988;27;20047;-71
2022/09/12 09:33:54;;;;;;;59.35;36.10;;;;;;;;;;5126927;27;20458;-71
2022/09/12 09:36:32;;;;;;;57.13;35.13;;;;;;;;;;5126187;27;20047;-72
2022/09/12 09:39:24;;;;;;;56.72;34.97;;;;;;;;;;5125391;27;20054;-70
2022/09/12 09:42:09;;;;;;;59.67;36.00;;;;;;;;;;5093581;27;20509;-72
2022/09/12 09:44:35;;;;;;;56.22;35.72;;;;;;;;;;5108625;28;20059;-71
2022/09/12 09:47:02;;;;;;;57.85;35.25;;;;;;;;;;5114452;27;20051;-70
2022/09/12 09:49:30;;;;;;;53.00;34.30;;;;;;;;;;5111754;27;20165;-68
2022/09/12 09:51:57;;;;;;;58.22;34.55;;;;;;;;;;5126238;27;20419;-72
2022/09/12 09:54:24;;;;;;;52.28;33.03;;;;;;;;;;5128096;27;20069;-71
2022/09/12 09:56:51;;;;;;;54.35;34.42;;;;;;;;;;5121931;27;20130;-70
2022/09/12 09:59:19;;;;;;;53.08;32.25;;;;;;;;;;5126895;27;20046;-71
2022/09/12 10:01:56;;;;;;;53.75;33.67;;;;;;;;;;5126388;27;20054;-71
2022/09/12 10:04:26;;;;;;;56.00;34.33;;;;;;;;;;5127836;27;20119;-73
2022/09/12 10:06:54;;;;;;;56.90;33.03;;;;;;;;;;5125145;27;20066;-71
2022/09/12 10:09:21;;;;;;;56.85;34.10;;;;;;;;;;5123914;27;20054;-69
2022/09/12 10:11:48;;;;;;;56.45;34.90;;;;;;;;;;5125131;27;20035;-68
2022/09/12 10:14:35;;;;;;;56.08;34.05;;;;;;;;;;5107205;27;20135;-73
2022/09/12 10:17:03;;;;;;;57.05;33.38;;;;;;;;;;5107715;28;20131;-72
2022/09/12 10:19:34;;;;;;;53.60;34.63;;;;;;;;;;5125169;27;20451;-70
2022/09/12 10:22:01;;;;;;;58.70;35.28;;;;;;;;;;5123434;27;20066;-78
2022/09/12 10:24:27;;;;;;;56.53;35.03;;;;;;;;;;5108385;28;20048;-73
2022/09/12 10:26:57;;;;;;;53.42;32.28;;;;;;;;;;5124645;28;20103;-68
2022/09/12 10:29:26;;;;;;;59.80;33.28;;;;;;;;;;5131080;27;20156;-70
2022/09/12 10:31:57;;;;;;;55.58;32.78;;;;;;;;;;5129729;27;20050;-72
2022/09/12 10:34:29;;;;;;;51.97;29.80;;;;;;;;;;5131748;27;20043;-71
2022/09/12 10:36:59;;;;;;;43.63;25.23;;;;;;;;;;5109702;28;20097;-71
2022/09/12 10:39:25;;;;;;;45.35;26.73;;;;;;;;;;5134101;27;20200;-68
2022/09/12 10:41:51;;;;;;;44.30;26.40;;;;;;;;;;5126039;27;20069;-70
2022/09/12 10:44:18;;;;;;;42.05;25.10;;;;;;;;;;5139956;27;20171;-70
2022/09/12 10:46:45;;;;;;;42.10;23.38;;;;;;;;;;5141217;27;20443;-71
2022/09/12 10:49:13;;;;;;;37.28;22.02;;;;;;;;;;5128528;27;20372;-70
2022/09/12 10:51:39;;;;;;;36.10;21.92;;;;;;;;;;5148731;27;20385;-69
2022/09/12 10:54:05;;;;;;;;;;;;;;;;;;5138145;27;20456;-69
2022/09/12 10:56:40;;;;;;;37.17;20.75;;;;;;;;;;5134706;27;19999;-70
2022/09/12 10:59:19;;;;;;;37.47;22.10;;;;;;;;;;5132012;27;20100;-72
2022/09/12 11:01:46;;;;;;;38.78;21.88;;;;;;;;;;5134565;27;20459;-69
2022/09/12 11:04:19;;;;;;;36.67;21.15;;;;;;;;;;5123146;27;20133;-71
2022/09/12 11:06:52;;;;;;;39.25;21.80;;;;;;;;;;5139176;27;20134;-70
2022/09/12 11:09:21;;;;;;;40.67;23.50;;;;;;;;;;5145768;27;20283;-71
2022/09/12 11:11:53;;;;;;;39.03;22.55;;;;;;;;;;5137302;27;20122;-77
2022/09/12 11:14:23;;;;;;;44.58;23.17;;;;;;;;;;5133041;27;20547;-69
2022/09/12 11:16:55;;;;;;;42.45;23.30;;;;;;;;;;5146964;27;20443;-69
2022/09/12 11:19:58;;;;;;;41.92;22.58;;;;;;;;;;5149487;27;20063;-70
2022/09/12 11:22:24;;;;;;;37.28;21.52;;;;;;;;;;5051265;28;20059;-69
2022/09/12 11:24:50;;;;;;;;;;;;;;;;;;5126141;27;20183;-70
2022/09/12 11:27:34;;;;;;;38.50;22.10;;;;;;;;;;5142391;27;19955;-70
2022/09/12 11:30:10;;;;;;;36.85;20.92;;;;;;;;;;5108132;27;20107;-69
2022/09/12 11:32:40;;;;;;;39.72;21.10;;;;;;;;;;5140413;27;20115;-67
2022/09/12 11:35:17;;;;;;;35.88;19.60;;;;;;;;;;5132199;27;20160;-68
2022/09/12 11:37:59;;;;;;;33.78;19.10;;;;;;;;;;5149104;27;20058;-69
2022/09/12 11:40:43;;;;;;;33.03;18.35;;;;;;;;;;5146735;27;20042;-70
2022/09/12 11:43:30;;;;;;;34.10;18.67;;;;;;;;;;5130146;27;20134;-68
2022/09/12 11:45:58;;;;;;;31.75;17.42;;;;;;;;;;5135819;27;20174;-68
2022/09/12 11:48:27;;;;;;;27.40;15.93;;;;;;;;;;5149313;27;20470;-68
2022/09/12 11:50:53;;;;;;;27.45;15.45;;;;;;;;;;5149963;27;20081;-69
2022/09/12 11:53:25;;;;;;;22.67;12.70;;;;;;;;;;5131209;27;20074;-71
2022/09/12 11:56:04;;;;;;;22.08;11.75;;;;;;;;;;5131724;27;20054;-69
2022/09/12 11:58:30;;;;;;;18.05;10.45;;;;;;;;;;5115632;27;20111;-67
2022/09/12 12:01:08;;;;;;;22.08;12.93;;;;;;;;;;5149159;27;20061;-70
2022/09/12 12:03:42;;;;;;;23.58;12.30;;;;;;;;;;5152035;27;20061;-71
2022/09/12 12:06:18;;;;;;;21.75;12.48;;;;;;;;;;5111957;27;20099;-69
2022/09/12 12:08:45;;;;;;;24.35;14.48;;;;;;;;;;5137652;27;20047;-67
2022/09/12 12:11:12;;;;;;;23.95;14.27;;;;;;;;;;5137715;27;20495;-68
2022/09/12 12:13:52;;;;;;;22.65;13.52;;;;;;;;;;5143990;27;20431;-67
2022/09/12 12:16:22;;;;;;;23.80;13.00;;;;;;;;;;5148235;27;20053;-67
2022/09/12 12:18:54;;;;;;;20.63;12.45;;;;;;;;;;5150500;27;20048;-71
2022/09/12 12:21:20;;;;;;;22.70;12.10;;;;;;;;;;5132864;27;20091;-66
2022/09/12 12:24:25;;;;;;;26.67;13.95;;;;;;;;;;5150635;27;20046;-66
2022/09/12 12:26:56;;;;;;;23.15;12.52;;;;;;;;;;5065370;28;20132;-67
2022/09/12 12:29:22;;;;;;;19.13;11.82;;;;;;;;;;5065687;28;20056;-68
2022/09/12 12:31:48;;;;;;;;;;;;;;;;;;5101585;27;20131;-67
2022/09/12 12:34:20;;;;;;;19.67;10.40;;;;;;;;;;5122636;27;20015;-74
2022/09/12 12:36:49;;;;;;;19.13;10.77;;;;;;;;;;5130023;27;20190;-70
2022/09/12 12:39:33;;;;;;;22.23;10.55;;;;;;;;;;5132785;27;20172;-71
2022/09/12 12:41:59;;;;;;;17.63;9.63;;;;;;;;;;5148868;27;20168;-71
2022/09/12 12:44:47;;;;;;;17.67;8.52;;;;;;;;;;5149346;27;20169;-69
2022/09/12 12:47:24;;;;;;;15.23;7.35;;;;;;;;;;5149448;27;20407;-72
2022/09/12 12:49:50;;;;;;;;;;;;;;;;;;5122950;27;20038;-72
2022/09/12 12:52:18;;;;;;;14.77;8.18;;;;;;;;;;5148165;27;19927;-76
2022/09/12 12:54:44;;;;;;;16.67;8.05;;;;;;;;;;5130354;27;20039;-75
2022/09/12 12:57:10;;;;;;;;;;;;;;;;;;5126325;27;20404;-70
2022/09/12 12:59:36;;;;;;;12.65;6.93;;;;;;;;;;5148334;27;20013;-65
2022/09/12 13:02:02;;;;;;;;;;;;;;;;;;5124365;27;20057;-66
2022/09/12 13:04:30;;;;;;;15.07;8.20;;;;;;;;;;5150799;27;20013;-66
2022/09/12 13:06:56;;;;;;;16.95;8.10;;;;;;;;;;5147683;27;20177;-66
2022/09/12 13:09:22;;;;;;;;;;;;;;;;;;5146843;27;20144;-68
2022/09/12 13:11:55;;;;;;;18.00;9.55;;;;;;;;;;5146434;27;20038;-64
2022/09/12 13:14:40;;;;;;;16.55;8.52;;;;;;;;;;5149105;27;20087;-71
2022/09/12 13:17:07;;;;;;;14.90;7.43;;;;;;;;;;5147801;27;20047;-68
2022/09/12 13:19:36;;;;;;;15.27;7.05;;;;;;;;;;5147262;27;20280;-74
2022/09/12 13:22:04;;;;;;;13.00;6.38;;;;;;;;;;5130342;27;20088;-71
2022/09/12 13:24:30;;;;;;;17.40;6.53;;;;;;;;;;5147219;27;20062;-66
2022/09/12 13:26:57;;;;;;;15.88;7.10;;;;;;;;;;5149533;27;20463;-67
2022/09/12 13:29:24;;;;;;;15.70;7.15;;;;;;;;;;5145073;27;20042;-70
2022/09/12 13:31:58;;;;;;;17.65;7.80;;;;;;;;;;5149992;27;20073;-66
2022/09/12 13:34:35;;;;;;;15.85;7.03;;;;;;;;;;5126258;27;20435;-69
2022/09/12 13:37:07;;;;;;;15.18;7.43;;;;;;;;;;5139829;27;20358;-72
2022/09/12 13:39:36;;;;;;;17.88;9.32;;;;;;;;;;5131778;27;20257;-72
2022/09/12 13:42:20;;;;;;;16.90;9.23;;;;;;;;;;5133285;27;21663;-75
2022/09/12 13:45:04;;;;;;;14.32;7.85;;;;;;;;;;5132659;27;20454;-71
2022/09/12 13:47:39;;;;;;;15.25;7.45;;;;;;;;;;5127627;27;20173;-70
2022/09/12 13:50:07;;;;;;;13.95;7.80;;;;;;;;;;5130145;27;20512;-69
2022/09/12 13:52:34;;;;;;;14.68;8.02;;;;;;;;;;5140814;27;20476;-72
2022/09/12 13:55:01;;;;;;;16.30;8.63;;;;;;;;;;5150494;27;20125;-70
2022/09/12 13:57:37;;;;;;;17.05;7.78;;;;;;;;;;5147295;27;20462;-69
2022/09/12 14:00:18;;;;;;;15.90;8.48;;;;;;;;;;5149850;27;20557;-69
2022/09/12 14:02:45;;;;;;;16.00;8.07;;;;;;;;;;5130578;27;20358;-68
2022/09/12 14:05:31;;;;;;;15.02;7.95;;;;;;;;;;5131554;27;20050;-69
2022/09/12 14:08:16;;;;;;;18.80;8.85;;;;;;;;;;5134293;27;20126;-68
2022/09/12 14:10:42;;;;;;;;;;;;;;;;;;5147614;27;20118;-69
2022/09/12 14:13:17;;;;;;;15.25;7.07;;;;;;;;;;5148501;27;19990;-69
2022/09/12 14:15:44;;;;;;;13.65;7.07;;;;;;;;;;5149488;27;20126;-68
2022/09/12 14:18:22;;;;;;;15.48;7.20;;;;;;;;;;5150111;27;20141;-71
2022/09/12 14:20:50;;;;;;;15.23;7.57;;;;;;;;;;5129520;27;20151;-70
2022/09/12 14:23:20;;;;;;;12.80;7.68;;;;;;;;;;5130010;27;20095;-72
2022/09/12 14:25:47;;;;;;;15.23;8.57;;;;;;;;;;5110937;27;20054;-69
2022/09/12 14:28:17;;;;;;;15.40;7.40;;;;;;;;;;5141968;27;20111;-73
2022/09/12 14:30:57;;;;;;;16.20;7.18;;;;;;;;;;5147438;27;20642;-67
2022/09/12 14:33:23;;;;;;;16.38;7.97;;;;;;;;;;5144954;27;20144;-69
2022/09/12 14:35:49;;;;;;;;;;;;;;;;;;5126373;27;20115;-68
2022/09/12 14:38:15;;;;;;;15.55;8.63;;;;;;;;;;5124046;27;19997;-69
2022/09/12 14:40:41;;;;;;;;;;;;;;;;;;5131374;27;20049;-72
2022/09/12 14:43:17;;;;;;;17.27;8.43;;;;;;;;;;5143598;27;19923;-68
2022/09/12 14:45:43;;;;;;;17.33;9.55;;;;;;;;;;5154643;27;20289;-70